Strona główna
METAR-TAF:

METAR-TAF

Lotnisko :

Cazaux, Francja

Szerokość geograficzna: 44-32N, Długość geograficzna: 001-08W, wysokość: 25 m

Aktualna obserwacja pogody

Raport powstał 28 minut temu, godzina 19:00 UTC
Wiatr 8 kt od północny zachód, zmienny między zachód i północno-północny zachód
Temperatura 21°C
Wilgotność 73%
Ciśnienie 1017 hPa
Widzialność 10 km lub więcej
Rozproszone chmury na wysokości 2100 ft
Przerywane chmury na wysokości 2700 ft

METAR: LFBC 171900Z AUTO 31008KT 280V340 9999 SCT021 BKN027 21/16 Q1017 NOSIG

czas: 21:28 (19:28 UTC)

Prognoza

Raport powstał 5 godziny i 28 minut temu, godzina 14:00 UTC
Prognoza ważna od 17 godzina 15 UTC do 18 godzina 15 UTC
Wiatr 10 kt od północno-północny zachód
Widzialność 10 km lub więcej
Brak chmur poniżej 1500 m i brak chmur cumulonimbus

TAF: LFBC 171400Z 1715/1815 33010KT CAVOK

Obserwacja i prognoza pogody dla ponad 4000 lotnisk (raport METAR i TAF).

Dostępne stacje oznaczono żółtymi i czerwonymi punktami na mapie.

Najedź kursorem aby zobaczyć nazwę stacji.

Kliknij aby zobaczyć obserwacje i prognozy pogody.

Aby zmienić mapę: kliknij na zielony przycisk z czarnym krzyżykiem, aby powiększyć; na zielony przycisk z myślnikiem, aby pomniejszyć; na zielone strzałki, aby przejść do map sąsiednich.


METAR-TAF: